Time;durP1;ratioP1;P1;durP2;ratioP2;P2;SDS_P1;SDS_P2;PMS_P1;PMS_P2;Temp;Humidity;BMP_temperature;BMP_pressure;BME280_temperature;BME280_humidity;BME280_pressure;Samples;Min_cycle;Max_cycle;Signal;HPM_P1;HPM_P2
2023/10/24 00:00:58;;;;;;;;;21.00;21.00;;;;;10.96;100.00;99323.81;6277455;20;2828460;-41
2023/10/24 00:03:27;;;;;;;;;19.00;19.00;;;;;10.69;100.00;99329.25;6281453;20;2839878;-41
2023/10/24 00:05:56;;;;;;;;;23.00;22.00;;;;;11.36;100.00;99339.84;6279131;20;2847224;-40
2023/10/24 00:08:40;;;;;;;;;23.50;19.00;;;;;11.45;100.00;99331.13;6277081;20;2842091;-42
2023/10/24 00:11:09;;;;;;;;;23.50;18.50;;;;;11.58;100.00;99331.13;6276533;20;2820190;-40
2023/10/24 00:13:38;;;;;;;;;20.00;20.00;;;;;11.79;100.00;99326.03;6280937;20;2824344;-43
2023/10/24 00:16:07;;;;;;;;;21.00;20.00;;;;;11.86;100.00;99322.81;6276865;20;2826323;-40
2023/10/24 00:18:37;;;;;;;;;22.00;21.00;;;;;12.04;100.00;99328.69;6279057;20;2835928;-40
2023/10/24 00:21:07;;;;;;;;;16.33;14.67;;;;;12.04;100.00;99322.44;6309798;20;3532623;-42
2023/10/24 00:23:36;;;;;;;;;19.50;18.50;;;;;12.13;100.00;99324.44;6277672;20;2814888;-40
2023/10/24 00:26:05;;;;;;;;;24.00;21.00;;;;;12.06;100.00;99317.81;6281775;20;3582639;-40
2023/10/24 00:28:34;;;;;;;;;25.00;24.00;;;;;12.04;100.00;99328.69;6278621;20;2848225;-41
2023/10/24 00:31:07;;;;;;;;;23.33;22.00;;;;;12.10;100.00;99322.00;6283645;20;2843005;-41
2023/10/24 00:33:38;;;;;;;;;27.13;22.88;;;;;12.13;100.00;99323.59;6341295;20;3586728;-42
2023/10/24 00:36:07;;;;;;;;;28.00;24.00;;;;;11.79;100.00;99318.81;6283343;20;2852522;-41
2023/10/24 00:38:36;;;;;;;;;23.00;23.00;;;;;11.99;100.00;99311.16;6282786;20;2850320;-41
2023/10/24 00:41:05;;;;;;;;;24.00;22.67;;;;;11.75;100.00;99313.78;6285391;20;2846202;-41
2023/10/24 00:43:34;;;;;;;;;25.67;23.00;;;;;11.76;100.00;99315.50;6317528;20;3593069;-41
2023/10/24 00:46:05;;;;;;;;;24.67;23.33;;;;;11.71;100.00;99312.28;6281943;20;2845103;-41
2023/10/24 00:48:34;;;;;;;;;29.67;23.33;;;;;11.80;100.00;99307.09;6317616;20;3598271;-42
2023/10/24 00:51:03;;;;;;;;;24.50;23.50;;;;;11.66;100.00;99296.47;6281610;20;2846302;-42
2023/10/24 00:53:33;;;;;;;;;27.00;26.00;;;;;11.44;100.00;99289.09;6280923;20;3598208;-41
2023/10/24 00:56:02;;;;;;;;;34.67;30.00;;;;;11.25;100.00;99294.91;6316732;20;3619163;-48
2023/10/24 00:58:31;;;;;;;;;28.67;25.00;;;;;11.05;100.00;99288.25;6286870;20;3593465;-45
2023/10/24 01:01:01;;;;;;;;;27.67;25.67;;;;;11.20;100.00;99279.13;6279243;20;3602436;-42
2023/10/24 01:03:30;;;;;;;;;36.00;32.67;;;;;11.02;100.00;99269.66;6314373;20;3610798;-43
2023/10/24 01:06:01;;;;;;;;;28.67;26.00;;;;;10.53;100.00;99265.88;6282277;20;2853639;-43
2023/10/24 01:08:30;;;;;;;;;27.67;26.33;;;;;10.93;100.00;99270.31;6314718;20;3588901;-42
2023/10/24 01:11:00;;;;;;;;;24.00;24.00;;;;;10.87;100.00;99273.41;6280751;20;2856634;-41
2023/10/24 01:13:29;;;;;;;;;24.67;23.00;;;;;10.75;100.00;99270.63;6317392;20;3593981;-43
2023/10/24 01:15:58;;;;;;;;;28.00;26.00;;;;;11.18;100.00;99278.34;6284610;20;2886739;-44
2023/10/24 01:18:26;;;;;;;;;22.00;21.00;;;;;10.76;100.00;99276.84;6286897;20;3580509;-42
2023/10/24 01:20:56;;;;;;;;;26.33;25.67;;;;;10.72;100.00;99284.25;6283120;20;2858740;-42
2023/10/24 01:23:30;;;;;;;;;26.67;24.67;;;;;10.93;100.00;99294.50;6317419;20;3600344;-43
2023/10/24 01:26:00;;;;;;;;;33.67;27.33;;;;;10.69;100.00;99308.66;6280651;20;3614830;-41
2023/10/24 01:28:29;;;;;;;;;27.00;25.00;;;;;10.67;100.00;99304.34;6317794;20;3596118;-41
2023/10/24 01:30:58;;;;;;;;;28.33;22.67;;;;;10.96;100.00;99305.03;6282341;20;3597094;-44
2023/10/24 01:33:29;;;;;;;;;26.67;25.67;;;;;10.98;100.00;99308.47;6282547;20;3598270;-42
2023/10/24 01:35:58;;;;;;;;;31.00;29.33;;;;;10.84;100.00;99301.34;6315843;20;3599207;-41
2023/10/24 01:38:27;;;;;;;;;30.00;26.00;;;;;10.72;100.00;99302.22;6284493;20;2839943;-42
2023/10/24 01:40:56;;;;;;;;;27.33;26.67;;;;;10.91;100.00;99294.59;6314142;20;3602399;-44
2023/10/24 01:43:25;;;;;;;;;34.00;32.00;;;;;10.52;100.00;99290.97;6279864;20;2846615;-42
2023/10/24 01:45:53;;;;;;;;;33.00;31.00;;;;;10.64;100.00;99297.34;6283634;20;3607512;-40
2023/10/24 01:48:25;;;;;;;;;41.00;33.50;;;;;10.81;100.00;99287.28;6279489;20;2865419;-41
2023/10/24 01:50:54;;;;;;;;;38.33;32.33;;;;;10.18;100.00;99281.63;6281841;20;3604506;-41
2023/10/24 01:53:23;;;;;;;;;45.67;38.00;;;;;10.19;100.00;99291.41;6310525;20;3599316;-40
2023/10/24 01:56:05;;;;;;;;;44.33;36.67;;;;;10.45;100.00;99299.53;6304854;20;2847450;-42
2023/10/24 01:58:35;;;;;;;;;48.67;38.00;;;;;10.10;100.00;99283.94;6310361;20;2853867;-39
2023/10/24 02:01:06;;;;;;;;;47.33;37.67;;;;;10.10;100.00;99289.31;6312395;20;2856680;-41
2023/10/24 02:03:35;;;;;;;;;47.00;37.67;;;;;10.01;100.00;99273.84;6314933;20;2851379;-41
2023/10/24 02:06:05;;;;;;;;;45.33;34.33;;;;;10.28;100.00;99287.28;6313337;20;3620259;-42
2023/10/24 02:08:35;;;;;;;;;41.67;36.00;;;;;10.18;100.00;99284.31;6312202;20;2850442;-40
2023/10/24 02:11:04;;;;;;;;;36.67;33.33;;;;;9.78;100.00;99273.50;6318645;20;3597233;-41
2023/10/24 02:13:34;;;;;;;;;30.00;27.00;;;;;9.72;100.00;99267.72;6279148;20;3607576;-41
2023/10/24 02:16:03;;;;;;;;;33.33;30.67;;;;;9.41;100.00;99254.44;6315918;20;3586706;-42
2023/10/24 02:18:32;;;;;;;;;37.33;33.33;;;;;9.77;100.00;99261.09;6275656;20;2847160;-40
2023/10/24 02:21:09;;;;;;;;;34.67;31.33;;;;;10.22;100.00;99267.06;6315665;20;3604456;-42
2023/10/24 02:23:38;;;;;;;;;35.50;30.50;;;;;9.95;100.00;99260.81;6280924;20;2844069;-40
2023/10/24 02:26:14;;;;;;;;;34.67;29.67;;;;;10.01;100.00;99263.13;6278344;20;3588958;-42
2023/10/24 02:28:43;;;;;;;;;38.00;31.33;;;;;10.38;100.00;99266.06;6281182;20;3604490;-42
2023/10/24 02:31:14;;;;;;;;;31.67;29.33;;;;;10.09;100.00;99256.28;6280424;20;3599395;-41
2023/10/24 02:33:44;;;;;;;;;30.00;27.33;;;;;9.87;100.00;99262.22;6310046;20;2851323;-41
2023/10/24 02:36:15;;;;;;;;;29.33;27.00;;;;;9.95;100.00;99258.13;6310428;20;3588798;-41
2023/10/24 02:38:44;;;;;;;;;28.33;25.00;;;;;9.95;100.00;99264.34;6278297;20;3596796;-41
2023/10/24 02:41:15;;;;;;;;;25.00;23.00;;;;;9.64;100.00;99260.16;6277947;20;2835737;-40
2023/10/24 02:43:44;;;;;;;;;30.00;27.33;;;;;10.12;100.00;99274.00;6281617;20;3595160;-40
2023/10/24 02:46:13;;;;;;;;;29.67;28.67;;;;;10.57;100.00;99271.88;6313570;20;3601511;-41
2023/10/24 02:48:43;;;;;;;;;30.33;28.00;;;;;9.73;100.00;99267.59;6281664;20;3614825;-43
2023/10/24 02:51:12;;;;;;;;;32.00;29.00;;;;;9.61;100.00;99257.66;6311472;20;3588940;-41
2023/10/24 02:53:41;;;;;;;;;33.33;29.67;;;;;9.87;100.00;99267.56;6277576;20;3610682;-42
2023/10/24 02:56:10;;;;;;;;;31.67;30.33;;;;;9.91;100.00;99268.22;6277439;20;3608725;-42
2023/10/24 02:58:39;;;;;;;;;36.00;32.33;;;;;10.37;100.00;99280.41;6311845;20;3592073;-42
2023/10/24 03:01:09;;;;;;;;;36.33;32.67;;;;;10.09;100.00;99266.16;6276207;20;2848184;-41
2023/10/24 03:03:38;;;;;;;;;38.00;32.67;;;;;9.60;100.00;99258.63;6314449;20;3617396;-42
2023/10/24 03:06:16;;;;;;;;;33.00;31.00;;;;;10.01;100.00;99263.13;6281547;20;2844421;-41
2023/10/24 03:08:45;;;;;;;;;32.67;30.33;;;;;9.94;100.00;99261.78;6320302;20;3582583;-42
2023/10/24 03:11:25;;;;;;;;;33.67;31.33;;;;;9.74;100.00;99239.84;6277333;20;2850416;-43
2023/10/24 03:13:55;;;;;;;;;35.00;31.00;;;;;9.58;100.00;99236.41;6310377;20;2741910;-42
2023/10/24 03:16:26;;;;;;;;;30.33;26.67;;;;;10.37;100.00;99243.72;6311825;20;2847179;-45
2023/10/24 03:18:57;;;;;;;;;26.67;26.33;;;;;10.12;100.00;99228.38;6312387;20;2859749;-42
2023/10/24 03:21:26;;;;;;;;;24.67;23.67;;;;;9.57;100.00;99213.25;6311872;20;2850404;-44
2023/10/24 03:23:55;;;;;;;;;25.50;24.50;;;;;10.00;100.00;99208.59;6312996;20;2847300;-43
2023/10/24 03:26:24;;;;;;;;;22.50;20.50;;;;;10.03;100.00;99200.38;6278829;20;2838790;-42
2023/10/24 03:28:53;;;;;;;;;23.00;21.00;;;;;9.94;100.00;99203.66;6281961;20;2852389;-41
2023/10/24 03:31:22;;;;;;;;;23.50;23.00;;;;;9.86;100.00;99196.13;6280879;20;2850307;-42
2023/10/24 03:33:51;;;;;;;;;24.00;23.00;;;;;9.63;100.00;99199.44;6279623;20;2717047;-42
2023/10/24 03:36:19;;;;;;;;;24.50;24.50;;;;;9.38;100.00;99187.66;6309582;20;2850303;-42
2023/10/24 03:38:48;;;;;;;;;26.50;24.00;;;;;9.65;100.00;99195.72;6281812;20;2854389;-42
2023/10/24 03:41:18;;;;;;;;;31.33;27.67;;;;;9.89;100.00;99178.97;6280528;20;2845401;-41
2023/10/24 03:43:49;;;;;;;;;30.00;27.67;;;;;9.18;100.00;99174.69;6313631;20;3600280;-41
2023/10/24 03:46:19;;;;;;;;;31.33;28.00;;;;;9.43;100.00;99172.16;6278345;20;2845003;-46
2023/10/24 03:48:48;;;;;;;;;32.67;31.00;;;;;10.11;100.00;99195.34;6312628;20;3581625;-42
2023/10/24 03:51:17;;;;;;;;;34.00;31.00;;;;;10.26;100.00;99198.78;6278394;20;2854596;-42
2023/10/24 03:53:46;;;;;;;;;34.67;31.00;;;;;10.32;100.00;99202.91;6310313;20;3594230;-41
2023/10/24 03:56:15;;;;;;;;;27.00;26.00;;;;;10.17;100.00;99201.25;6278400;20;3605605;-43
2023/10/24 03:58:44;;;;;;;;;30.33;26.33;;;;;9.38;100.00;99201.06;6312896;20;3604452;-40
2023/10/24 04:01:13;;;;;;;;;31.50;30.00;;;;;9.83;100.00;99196.31;6280371;20;2837750;-41
2023/10/24 04:03:42;;;;;;;;;30.00;29.67;;;;;9.15;100.00;99188.28;6281436;20;3616934;-41
2023/10/24 04:06:12;;;;;;;;;29.00;27.50;;;;;9.07;100.00;99190.59;6282954;20;2862903;-41
2023/10/24 04:08:41;;;;;;;;;27.67;26.00;;;;;9.26;100.00;99180.41;6288919;20;3594156;-40
2023/10/24 04:11:18;;;;;;;;;26.33;26.33;;;;;9.14;100.00;99181.22;6284708;20;3594031;-41
2023/10/24 04:13:47;;;;;;;;;24.67;23.33;;;;;9.56;100.00;99177.56;6318731;20;3588928;-40
2023/10/24 04:16:17;;;;;;;;;24.00;24.00;;;;;9.21;100.00;99180.69;6282986;20;2852566;-41
2023/10/24 04:18:47;;;;;;;;;32.00;29.67;;;;;9.77;100.00;99188.69;6315955;20;3595160;-41
2023/10/24 04:21:17;;;;;;;;;26.33;25.33;;;;;9.62;100.00;99198.59;6285116;20;2845097;-41
2023/10/24 04:23:46;;;;;;;;;30.67;27.67;;;;;9.18;100.00;99198.78;6317478;20;3594285;-41
2023/10/24 04:26:15;;;;;;;;;29.50;27.50;;;;;9.21;100.00;99183.38;6283077;20;2845317;-41
2023/10/24 04:28:44;;;;;;;;;24.00;23.00;;;;;8.83;100.00;99177.78;6284808;20;2848236;-40
2023/10/24 04:31:14;;;;;;;;;29.67;26.67;;;;;9.33;100.00;99170.16;6282987;20;2851704;-41
2023/10/24 04:33:44;;;;;;;;;27.00;27.00;;;;;9.07;100.00;99169.16;6314710;20;2846115;-40
2023/10/24 04:36:14;;;;;;;;;24.50;23.00;;;;;9.58;100.00;99175.63;6313749;20;2850307;-41
2023/10/24 04:38:43;;;;;;;;;23.50;21.00;;;;;8.79;100.00;99176.25;6284101;20;2830527;-42
2023/10/24 04:41:12;;;;;;;;;22.00;19.00;;;;;9.44;100.00;99173.00;6285171;20;2833663;-41
2023/10/24 04:43:41;;;;;;;;;21.50;20.00;;;;;8.95;100.00;99182.38;6284140;20;2837837;-42
2023/10/24 04:46:10;;;;;;;;;22.00;19.50;;;;;8.69;100.00;99181.31;6282837;20;2831534;-40
2023/10/24 04:48:38;;;;;;;;;20.00;19.00;;;;;9.11;100.00;99184.06;6282787;20;2500273;-41
2023/10/24 04:51:13;;;;;;;;;22.50;20.00;;;;;9.09;100.00;99191.34;6283246;20;2846249;-42
2023/10/24 04:53:42;;;;;;;;;33.00;30.67;;;;;9.14;100.00;99186.56;6283316;20;2855595;-42
2023/10/24 04:56:11;;;;;;;;;34.00;28.00;;;;;9.37;100.00;99194.00;6314656;20;3604640;-43
2023/10/24 04:58:41;;;;;;;;;33.67;27.33;;;;;9.02;100.00;99205.13;6282975;20;2870357;-42
2023/10/24 05:01:10;;;;;;;;;27.33;26.00;;;;;9.33;100.00;99213.03;6313511;20;3596182;-41
2023/10/24 05:03:39;;;;;;;;;29.00;27.00;;;;;9.08;100.00;99203.84;6316750;20;3592940;-43
2023/10/24 05:06:09;;;;;;;;;25.50;23.50;;;;;9.08;100.00;99201.19;6282510;20;2844114;-42
2023/10/24 05:08:38;;;;;;;;;26.00;24.00;;;;;9.02;100.00;99210.47;6282701;20;2846122;-41
2023/10/24 05:11:07;;;;;;;;;27.67;25.00;;;;;9.01;100.00;99200.72;6283605;20;2855541;-41
2023/10/24 05:13:36;;;;;;;;;24.00;22.00;;;;;8.76;100.00;99203.19;6315229;20;2842004;-41
2023/10/24 05:16:05;;;;;;;;;22.00;21.00;;;;;8.36;100.00;99189.56;6279048;20;3572229;-44
2023/10/24 05:18:34;;;;;;;;;28.50;27.00;;;;;8.67;100.00;99188.59;6285426;20;2855492;-41
2023/10/24 05:21:02;;;;;;;;;25.00;23.00;;;;;8.84;100.00;99184.84;6281359;20;2500282;-42
2023/10/24 05:23:31;;;;;;;;;36.00;32.33;;;;;8.67;100.00;99187.72;6282083;20;3603515;-41
2023/10/24 05:26:00;;;;;;;;;45.50;38.50;;;;;8.95;100.00;99186.84;6309920;20;2840932;-41
2023/10/24 05:28:32;;;;;;;;;74.33;60.33;;;;;8.75;100.00;99183.63;6282740;20;3617043;-41
2023/10/24 05:31:08;;;;;;;;;50.00;44.00;;;;;9.08;100.00;99186.94;6312099;20;2857576;-41
2023/10/24 05:33:38;;;;;;;;;35.33;34.00;;;;;9.29;100.00;99187.38;6286089;20;3595122;-42
2023/10/24 05:36:08;;;;;;;;;34.00;32.00;;;;;8.99;100.00;99183.03;6277571;20;2853439;-41
2023/10/24 05:38:37;;;;;;;;;36.00;31.67;;;;;9.29;100.00;99185.56;6317587;20;3581679;-41
2023/10/24 05:41:06;;;;;;;;;42.67;35.67;;;;;9.37;100.00;99195.78;6280655;20;2858690;-43
2023/10/24 05:43:37;;;;;;;;;44.00;38.00;;;;;9.25;100.00;99189.41;6313628;20;2835733;-42
2023/10/24 05:46:06;;;;;;;;;41.50;36.00;;;;;9.88;100.00;99194.19;6280653;20;2839919;-41
2023/10/24 05:48:38;;;;;;;;;44.00;37.67;;;;;9.34;100.00;99178.09;6283548;20;3619045;-41
2023/10/24 05:51:12;;;;;;;;;43.00;34.67;;;;;9.99;100.00;99189.94;6317624;20;3608765;-42
2023/10/24 05:53:41;;;;;;;;;26.67;26.67;;;;;9.37;100.00;99171.66;6286596;20;3600272;-43
2023/10/24 05:56:09;;;;;;;;;25.00;24.50;;;;;9.49;100.00;99181.59;6282668;20;2850379;-40
2023/10/24 05:58:38;;;;;;;;;20.67;20.67;;;;;9.26;100.00;99169.69;6282986;20;3567279;-41
2023/10/24 06:01:07;;;;;;;;;45.50;40.00;;;;;9.39;100.00;99173.28;6279407;20;2848312;-41
2023/10/24 06:03:36;;;;;;;;;34.00;27.33;;;;;11.30;100.00;99179.03;6285169;20;3596213;-42
2023/10/24 06:06:07;;;;;;;;;54.67;45.33;;;;;11.57;100.00;99174.31;6277533;20;2874412;-41
2023/10/24 06:08:36;;;;;;;;;37.00;32.67;;;;;11.58;100.00;99175.16;6312129;20;3590984;-40
2023/10/24 06:11:05;;;;;;;;;33.33;29.33;;;;;12.29;99.62;99176.13;6281933;20;3589867;-43
2023/10/24 06:13:34;;;;;;;;;22.33;21.33;;;;;12.60;98.28;99171.06;6284235;20;3585642;-42
2023/10/24 06:16:13;;;;;;;;;30.67;30.00;;;;;12.43;99.25;99164.31;6284317;20;3588864;-41
2023/10/24 06:18:42;;;;;;;;;28.00;26.67;;;;;12.68;99.17;99165.94;6280892;20;3612852;-41
2023/10/24 06:21:12;;;;;;;;;32.67;29.33;;;;;12.26;100.00;99171.81;6280058;20;3594004;-42
2023/10/24 06:23:42;;;;;;;;;32.00;31.00;;;;;11.91;100.00;99169.13;6279799;20;3597246;-41
2023/10/24 06:26:17;;;;;;;;;27.33;24.33;;;;;11.34;100.00;99178.69;6279667;20;2862910;-42
2023/10/24 06:28:46;;;;;;;;;49.00;40.33;;;;;11.84;100.00;99179.47;6316254;20;3603379;-42
2023/10/24 06:31:17;;;;;;;;;47.33;39.00;;;;;12.78;100.00;99177.69;6281885;20;2866352;-42
2023/10/24 06:33:47;;;;;;;;;54.00;44.00;;;;;12.37;100.00;99175.53;6312624;20;2852440;-41
2023/10/24 06:36:20;;;;;;;;;98.00;96.00;;;;;12.78;100.00;99191.16;6308708;20;3677432;-45
2023/10/24 06:38:51;;;;;;;;;44.33;36.00;;;;;12.57;100.00;99182.94;6280769;20;3615987;-44
2023/10/24 06:41:20;;;;;;;;;30.00;28.67;;;;;12.34;100.00;99176.63;6315801;20;3583641;-45
2023/10/24 06:43:49;;;;;;;;;25.33;24.33;;;;;13.47;100.00;99176.72;6282932;20;3587926;-44
2023/10/24 06:46:18;;;;;;;;;24.33;21.67;;;;;14.00;96.83;99179.50;6279941;20;3573399;-42
2023/10/24 06:48:49;;;;;;;;;17.50;17.50;;;;;14.06;94.43;99181.69;6279293;20;2829512;-43
2023/10/24 06:51:17;;;;;;;;;165.50;150.00;;;;;12.46;100.00;99167.59;6274716;20;1962818;-44
2023/10/24 06:53:46;;;;;;;;;40.00;34.00;;;;;12.92;98.38;99182.84;6280530;20;3607600;-45
2023/10/24 06:56:16;;;;;;;;;35.67;32.67;;;;;13.63;98.50;99198.75;6308837;20;2858736;-43
2023/10/24 06:58:48;;;;;;;;;32.00;29.33;;;;;13.35;98.59;99195.63;6311247;20;3578408;-42
2023/10/24 07:01:18;;;;;;;;;56.33;47.33;;;;;14.88;92.83;99176.47;6280882;20;2850423;-42
2023/10/24 07:03:47;;;;;;;;;20.00;19.00;;;;;13.50;96.16;99160.28;6311390;20;2829579;-42
2023/10/24 07:06:16;;;;;;;;;23.33;22.33;;;;;12.93;100.00;99167.56;6280609;20;3580588;-42
2023/10/24 07:08:48;;;;;;;;;25.67;24.00;;;;;13.23;100.00;99164.22;6279807;20;3602492;-44
2023/10/24 07:11:17;;;;;;;;;30.33;29.00;;;;;12.13;100.00;99162.13;6315539;20;3589873;-42
2023/10/24 07:13:47;;;;;;;;;25.67;24.67;;;;;12.10;100.00;99157.84;6280127;20;3589904;-42
2023/10/24 07:16:17;;;;;;;;;31.33;28.33;;;;;12.58;100.00;99156.84;6313074;20;3578827;-44
2023/10/24 07:18:46;;;;;;;;;29.67;25.00;;;;;12.54;100.00;99160.78;6281051;20;3603412;-43
2023/10/24 07:21:16;;;;;;;;;24.33;23.00;;;;;12.88;100.00;99153.59;6281677;20;3587809;-44
2023/10/24 07:23:44;;;;;;;;;27.67;26.00;;;;;12.89;100.00;99145.34;6282315;20;3587791;-43
2023/10/24 07:26:14;;;;;;;;;25.67;24.67;;;;;13.24;100.00;99138.09;6278286;20;3596081;-44
2023/10/24 07:28:43;;;;;;;;;26.33;26.33;;;;;13.65;100.00;99139.28;6314276;20;3602499;-44
2023/10/24 07:31:12;;;;;;;;;37.33;32.33;;;;;13.65;100.00;99142.84;6283007;20;3610073;-43
2023/10/24 07:33:43;;;;;;;;;35.67;32.00;;;;;14.07;99.70;99150.16;6283765;20;3604439;-45
2023/10/24 07:36:13;;;;;;;;;23.33;23.33;;;;;14.50;97.87;99152.72;6277848;20;2846245;-44
2023/10/24 07:38:41;;;;;;;;;33.67;30.00;;;;;13.92;99.43;99157.69;6312417;20;3592993;-43
2023/10/24 07:41:11;;;;;;;;;42.33;36.33;;;;;14.05;99.67;99167.31;6282651;20;3624387;-45
2023/10/24 07:43:58;;;;;;;;;25.33;24.00;;;;;13.01;100.00;99175.88;6275416;20;3606688;-45
2023/10/24 07:46:27;;;;;;;;;27.00;25.67;;;;;13.43;100.00;99172.53;6278723;20;3589374;-47
2023/10/24 07:48:58;;;;;;;;;32.33;30.67;;;;;13.99;100.00;99175.09;6281432;20;3577346;-45
2023/10/24 07:51:31;;;;;;;;;28.00;25.33;;;;;13.59;100.00;99168.47;6280238;20;3595086;-43
2023/10/24 07:54:01;;;;;;;;;25.67;24.00;;;;;13.85;100.00;99160.06;6280961;20;3588779;-44
2023/10/24 07:56:29;;;;;;;;;29.67;26.67;;;;;13.94;100.00;99147.63;6312678;20;3575462;-44
2023/10/24 07:58:59;;;;;;;;;29.00;25.67;;;;;14.31;100.00;99144.50;6280814;20;3600512;-44
2023/10/24 08:01:28;;;;;;;;;29.67;26.33;;;;;14.16;100.00;99142.13;6281473;20;3600287;-44
2023/10/24 08:03:58;;;;;;;;;27.00;27.00;;;;;14.06;100.00;99135.81;6280238;20;3599235;-44
2023/10/24 08:06:27;;;;;;;;;23.67;23.67;;;;;13.79;100.00;99134.44;6282276;20;3585671;-44
2023/10/24 08:08:58;;;;;;;;;24.00;23.00;;;;;13.63;100.00;99125.06;6280943;20;3589927;-47
2023/10/24 08:11:26;;;;;;;;;33.67;31.00;;;;;14.04;100.00;99126.97;6283709;20;3572169;-46
2023/10/24 08:13:56;;;;;;;;;24.67;24.67;;;;;13.68;100.00;99131.78;6277734;20;3589838;-47
2023/10/24 08:16:25;;;;;;;;;26.33;26.00;;;;;14.01;100.00;99127.25;6311687;20;3598231;-44
2023/10/24 08:18:54;;;;;;;;;37.00;28.00;;;;;14.61;100.00;99125.69;6276417;20;3623317;-44
2023/10/24 08:21:23;;;;;;;;;45.33;38.67;;;;;15.44;100.00;99122.84;6283838;20;3601297;-43
2023/10/24 08:23:54;;;;;;;;;27.67;26.67;;;;;15.05;98.47;99107.38;6280090;20;2858715;-43
2023/10/24 08:26:23;;;;;;;;;35.33;30.00;;;;;15.71;97.12;99117.66;6311849;20;3608677;-45
2023/10/24 08:28:52;;;;;;;;;24.33;23.33;;;;;15.63;95.81;99119.31;6282869;20;3596199;-43
2023/10/24 08:31:22;;;;;;;;;29.67;29.67;;;;;16.00;93.97;99128.47;6277804;20;2859801;-44
2023/10/24 08:33:51;;;;;;;;;24.33;22.67;;;;;15.11;96.54;99133.88;6315583;20;3594037;-44
2023/10/24 08:36:20;;;;;;;;;29.33;27.33;;;;;15.45;96.85;99138.09;6277949;20;3586858;-45
2023/10/24 08:38:49;;;;;;;;;26.33;25.00;;;;;15.63;96.47;99130.16;6313209;20;3594122;-46
2023/10/24 08:41:20;;;;;;;;;29.00;28.67;;;;;15.78;95.76;99126.91;6280222;20;3606680;-44
2023/10/24 08:43:50;;;;;;;;;30.00;25.33;;;;;15.15;96.90;99138.00;6280800;20;3592998;-43
2023/10/24 08:46:19;;;;;;;;;30.67;28.33;;;;;14.94;99.39;99145.31;6279300;20;3606646;-44
2023/10/24 08:48:50;;;;;;;;;27.67;25.67;;;;;14.79;100.00;99133.16;6281080;20;3597264;-44
2023/10/24 08:51:19;;;;;;;;;28.67;27.33;;;;;15.07;99.65;99132.44;6286920;20;3578486;-43
2023/10/24 08:53:48;;;;;;;;;28.00;25.00;;;;;15.70;96.46;99120.50;6284888;20;3604467;-46
2023/10/24 08:56:17;;;;;;;;;28.33;25.33;;;;;15.84;95.36;99120.06;6286021;20;3588861;-44
2023/10/24 08:58:48;;;;;;;;;25.67;25.67;;;;;15.59;95.90;99119.59;6286041;20;3593110;-44
2023/10/24 09:01:17;;;;;;;;;26.00;24.67;;;;;15.49;96.34;99120.59;6288075;20;3592125;-43
2023/10/24 09:03:46;;;;;;;;;25.67;24.00;;;;;16.03;95.93;99124.63;6287404;20;3593095;-45
2023/10/24 09:06:15;;;;;;;;;28.33;26.33;;;;;15.58;96.66;99123.28;6286209;20;3587794;-48
2023/10/24 09:08:44;;;;;;;;;25.67;23.00;;;;;15.35;98.61;99114.59;6287447;20;3584625;-44
2023/10/24 09:11:12;;;;;;;;;30.00;27.67;;;;;16.23;96.43;99103.81;6289956;20;3606502;-47
2023/10/24 09:13:41;;;;;;;;;30.00;26.33;;;;;16.29;94.07;99097.81;6287445;20;3591943;-48
2023/10/24 09:16:12;;;;;;;;;24.00;23.00;;;;;16.11;94.16;99091.41;6285176;20;3584690;-45
2023/10/24 09:18:42;;;;;;;;;23.67;23.67;;;;;16.18;94.94;99100.69;6319716;20;3587843;-44
2023/10/24 09:21:11;;;;;;;;;20.33;19.00;;;;;16.26;93.85;99103.53;6285135;20;3573310;-44
2023/10/24 09:23:40;;;;;;;;;22.67;21.00;;;;;16.17;94.75;99099.00;6286905;20;3576365;-46
2023/10/24 09:26:11;;;;;;;;;28.33;24.67;;;;;16.38;93.50;99090.69;6287633;20;3595117;-45
2023/10/24 09:28:40;;;;;;;;;25.00;22.00;;;;;16.24;95.31;99095.56;6287977;20;3594039;-44
2023/10/24 09:31:10;;;;;;;;;23.00;19.67;;;;;16.38;95.79;99080.69;6287253;20;3578516;-44
2023/10/24 09:33:40;;;;;;;;;21.67;20.67;;;;;15.90;95.97;99084.31;6283638;20;3585774;-48
2023/10/24 09:36:09;;;;;;;;;32.00;30.00;;;;;16.27;94.86;99086.25;6317021;20;3608650;-43
2023/10/24 09:38:46;;;;;;;;;32.67;28.00;;;;;16.83;94.05;99080.00;6285063;20;3584303;-42
2023/10/24 09:41:16;;;;;;;;;22.33;21.00;;;;;16.35;96.02;99075.56;6283484;20;3580472;-44
2023/10/24 09:43:48;;;;;;;;;17.00;17.00;;;;;16.35;95.91;99058.44;6282941;20;2829454;-46
2023/10/24 09:46:20;;;;;;;;;27.00;25.00;;;;;16.88;94.39;99056.00;6284611;20;3593137;-44
2023/10/24 09:48:51;;;;;;;;;30.33;25.00;;;;;17.11;92.60;99058.28;6284290;20;3602461;-45
2023/10/24 09:51:22;;;;;;;;;21.00;15.50;;;;;16.46;94.61;99067.25;6279067;20;2824311;-45
2023/10/24 09:53:52;;;;;;;;;29.67;24.00;;;;;16.35;95.23;99067.44;6287004;20;3602463;-44
2023/10/24 09:56:21;;;;;;;;;16.00;16.00;;;;;17.14;93.55;99074.28;6282795;20;2831692;-44
2023/10/24 09:58:51;;;;;;;;;19.00;18.00;;;;;17.89;89.37;99069.47;6282449;20;2824369;-45
2023/10/24 10:01:28;;;;;;;;;20.00;18.00;;;;;18.04;88.66;99058.91;6283856;20;2835734;-43
2023/10/24 10:04:00;;;;;;;;;23.00;21.00;;;;;18.27;87.20;99061.09;6283802;20;2829633;-43
2023/10/24 10:06:34;;;;;;;;;22.88;20.00;;;;;17.38;89.37;99065.56;6307664;20;3587909;-42
2023/10/24 10:09:07;;;;;;;;;20.00;20.00;;;;;18.04;88.90;99069.78;6287505;20;3583635;-43
2023/10/24 10:11:38;;;;;;;;;22.00;20.00;;;;;18.84;86.32;99066.94;6279353;20;2833611;-45
2023/10/24 10:14:31;;;;;;;;;32.33;27.67;;;;;18.84;83.75;99056.03;6281328;20;3602348;-45
2023/10/24 10:18:03;;;;;;;;;10.67;10.00;;;;;18.90;83.19;99044.50;6311031;20;3518007;-44
2023/10/24 10:21:00;;;;;;;;;10.67;7.67;;;;;19.57;79.39;99038.25;6358670;20;3485735;-46
2023/10/24 10:24:19;;;;;;;;;8.67;8.67;;;;;19.68;77.95;99035.22;6319604;20;2749009;-45
2023/10/24 10:27:12;;;;;;;;;8.40;7.00;;;;;19.89;77.29;99038.28;6336840;20;2744589;-45
2023/10/24 10:30:23;;;;;;;;;8.60;8.60;;;;;20.04;76.54;99035.75;6337832;20;2743106;-43
2023/10/24 10:33:16;;;;;;;;;3.40;3.00;;;;;19.69;77.31;99017.84;6308517;20;2730659;-45
2023/10/24 10:36:02;;;;;;;;;2.60;2.60;;;;;19.94;75.66;99008.66;6338782;20;2740056;-49
2023/10/24 10:38:49;;;;;;;;;3.20;3.00;;;;;19.98;74.54;99000.97;6342368;20;2750328;-43
2023/10/24 10:41:21;;;;;;;;;4.40;1.60;;;;;19.97;74.92;98996.56;6309778;20;2731700;-47
2023/10/24 10:43:59;;;;;;;;;3.80;3.00;;;;;19.76;74.82;98998.97;6340238;20;2752398;-46
2023/10/24 10:46:32;;;;;;;;;2.80;2.60;;;;;19.42;76.65;98998.06;6306527;20;2750250;-44
2023/10/24 10:49:08;;;;;;;;;4.33;3.67;;;;;19.78;75.55;98997.78;6287611;20;2752402;-44
2023/10/24 10:51:37;;;;;;;;;2.67;1.00;;;;;19.62;75.74;99005.91;6318790;20;2727371;-44
2023/10/24 10:54:42;;;;;;;;;3.33;2.33;;;;;19.57;75.46;99000.97;6320741;20;2726354;-43
2023/10/24 10:57:28;;;;;;;;;3.20;3.20;;;;;19.64;76.03;98988.38;6337133;20;2751379;-46
2023/10/24 11:00:04;;;;;;;;;2.00;2.00;;;;;19.66;75.98;98982.75;6282122;20;2752395;-43
2023/10/24 11:03:13;;;;;;;;;3.00;3.00;;;;;19.70;75.14;98976.00;6316594;20;2733770;-44
2023/10/24 11:05:43;;;;;;;;;3.00;3.00;;;;;19.74;75.95;98964.56;6337519;20;2738804;-44
2023/10/24 11:08:19;;;;;;;;;2.33;2.33;;;;;19.76;75.28;98972.56;6317501;20;2736835;-43
2023/10/24 11:11:00;;;;;;;;;3.80;2.60;;;;;19.84;75.69;98972.56;6337127;20;2750220;-44
2023/10/24 11:13:43;;;;;;;;;4.00;1.75;;;;;19.75;75.04;98973.59;6307070;20;2734650;-44
2023/10/24 11:16:14;;;;;;;;;6.00;3.00;;;;;19.98;75.05;98979.19;6314999;20;2746150;-44
2023/10/24 11:18:47;;;;;;;;;3.20;2.80;;;;;19.99;74.69;98985.50;6340160;20;2740905;-44